Time,TemperatureF,DewpointF,PressureIn,WindDirection,WindDirectionDegrees,WindSpeedMPH,WindSpeedGustMPH,Humidity,HourlyPrecipIn,Conditions,Clouds,dailyrainin,SolarRadiationWatts/m^2,SoftwareType,DateUTC
2013-10-08 00:01:00,58.6,49.0,29.88,WNW,294,7.0,7.0,70,0.00,,,0.00,0,weatherlink.com 1.10,2013-10-08 07:01:00,
2013-10-08 00:16:00,58.8,47.0,29.88,WSW,250,4.0,9.0,65,0.00,,,0.00,0,weatherlink.com 1.10,2013-10-08 07:16:00,
2013-10-08 00:31:00,58.6,47.0,29.88,West,274,1.0,7.0,65,0.00,,,0.00,0,weatherlink.com 1.10,2013-10-08 07:31:00,
2013-10-08 00:46:00,58.6,47.0,29.88,West,273,4.0,7.0,65,0.00,,,0.00,0,weatherlink.com 1.10,2013-10-08 07:46:00,
2013-10-08 01:02:00,58.3,46.0,29.87,WNW,286,2.0,7.0,65,0.00,,,0.00,0,weatherlink.com 1.10,2013-10-08 08:02:00,
2013-10-08 01:17:00,58.2,46.0,29.88,West,264,0.0,7.0,65,0.00,,,0.00,0,weatherlink.com 1.10,2013-10-08 08:17:00,
2013-10-08 01:32:00,58.5,46.0,29.88,West,281,4.0,6.0,63,0.00,,,0.00,0,weatherlink.com 1.10,2013-10-08 08:32:00,
2013-10-08 01:47:00,58.4,46.0,29.88,West,267,1.0,5.0,63,0.00,,,0.00,0,weatherlink.com 1.10,2013-10-08 08:47:00,
2013-10-08 02:02:00,56.7,46.0,29.88,WSW,240,2.0,5.0,67,0.00,,,0.00,0,weatherlink.com 1.10,2013-10-08 09:02:00,
2013-10-08 02:17:00,55.5,45.0,29.88,WSW,238,2.0,4.0,69,0.00,,,0.00,0,weatherlink.com 1.10,2013-10-08 09:17:00,
2013-10-08 02:32:00,54.2,46.0,29.88,WSW,238,1.0,3.0,74,0.00,,,0.00,0,weatherlink.com 1.10,2013-10-08 09:32:00,
2013-10-08 02:47:00,53.8,46.0,29.88,WSW,238,2.0,3.0,75,0.00,,,0.00,0,weatherlink.com 1.10,2013-10-08 09:47:00,
2013-10-08 03:02:00,54.0,46.0,29.88,WSW,238,1.0,3.0,75,0.00,,,0.00,0,weatherlink.com 1.10,2013-10-08 10:02:00,
2013-10-08 03:17:00,52.8,45.0,29.87,WSW,238,3.0,4.0,76,0.00,,,0.00,0,weatherlink.com 1.10,2013-10-08 10:17:00,
2013-10-08 03:32:00,52.1,45.0,29.87,WSW,238,1.0,3.0,78,0.00,,,0.00,0,weatherlink.com 1.10,2013-10-08 10:32:00,
2013-10-08 03:47:00,52.0,45.0,29.87,WSW,238,1.0,2.0,78,0.00,,,0.00,0,weatherlink.com 1.10,2013-10-08 10:47:00,
2013-10-08 04:02:00,51.5,46.0,29.87,WSW,238,1.0,2.0,80,0.00,,,0.00,0,weatherlink.com 1.10,2013-10-08 11:02:00,
2013-10-08 04:17:00,51.5,45.0,29.88,WSW,238,0.0,1.0,79,0.00,,,0.00,0,weatherlink.com 1.10,2013-10-08 11:17:00,
2013-10-08 04:32:00,50.3,45.0,29.88,WSW,238,3.0,3.0,81,0.00,,,0.00,0,weatherlink.com 1.10,2013-10-08 11:32:00,
2013-10-08 04:47:00,50.5,45.0,29.88,WSW,237,2.0,4.0,80,0.00,,,0.00,0,weatherlink.com 1.10,2013-10-08 11:47:00,
2013-10-08 05:02:00,50.6,45.0,29.88,WSW,237,2.0,3.0,80,0.00,,,0.00,0,weatherlink.com 1.10,2013-10-08 12:02:00,
2013-10-08 05:17:00,50.1,44.0,29.88,WSW,237,0.0,4.0,80,0.00,,,0.00,0,weatherlink.com 1.10,2013-10-08 12:17:00,
2013-10-08 05:32:00,50.4,44.0,29.88,WSW,237,0.0,1.0,79,0.00,,,0.00,0,weatherlink.com 1.10,2013-10-08 12:32:00,
2013-10-08 05:47:00,49.8,44.0,29.87,WSW,237,0.0,1.0,79,0.00,,,0.00,0,weatherlink.com 1.10,2013-10-08 12:47:00,
2013-10-08 06:02:00,49.4,44.0,29.88,WSW,237,0.0,0.0,80,0.00,,,0.00,0,weatherlink.com 1.10,2013-10-08 13:02:00,
2013-10-08 06:17:00,48.6,43.0,29.88,WSW,237,0.0,1.0,82,0.00,,,0.00,0,weatherlink.com 1.10,2013-10-08 13:17:00,
2013-10-08 06:32:00,49.0,44.0,29.88,WSW,237,0.0,1.0,82,0.00,,,0.00,0,weatherlink.com 1.10,2013-10-08 13:32:00,
2013-10-08 06:47:00,48.2,43.0,29.89,WSW,237,0.0,0.0,83,0.00,,,0.00,0,weatherlink.com 1.10,2013-10-08 13:47:00,
2013-10-08 07:02:00,48.3,43.0,29.89,WSW,237,0.0,0.0,82,0.00,,,0.00,0,weatherlink.com 1.10,2013-10-08 14:02:00,
2013-10-08 07:17:00,48.2,43.0,29.89,WSW,237,1.0,1.0,82,0.00,,,0.00,11,weatherlink.com 1.10,2013-10-08 14:17:00,
2013-10-08 07:32:00,48.8,43.0,29.89,WSW,237,1.0,2.0,81,0.00,,,0.00,21,weatherlink.com 1.10,2013-10-08 14:32:00,
2013-10-08 07:47:00,49.8,44.0,29.89,WSW,237,0.0,3.0,80,0.00,,,0.00,98,weatherlink.com 1.10,2013-10-08 14:47:00,
2013-10-08 08:02:00,52.1,45.0,29.89,WSW,237,0.0,0.0,76,0.00,,,0.00,160,weatherlink.com 1.10,2013-10-08 15:02:00,
2013-10-08 08:18:00,53.6,44.0,29.89,WSW,237,2.0,3.0,71,0.00,,,0.00,218,weatherlink.com 1.10,2013-10-08 15:18:00,
2013-10-08 08:33:00,55.0,45.0,29.89,SW,236,2.0,4.0,69,0.00,,,0.00,276,weatherlink.com 1.10,2013-10-08 15:33:00,
2013-10-08 08:48:00,56.7,45.0,29.89,SW,236,1.0,4.0,65,0.00,,,0.00,329,weatherlink.com 1.10,2013-10-08 15:48:00,
2013-10-08 09:03:00,58.9,44.0,29.89,SW,236,2.0,4.0,59,0.00,,,0.00,374,weatherlink.com 1.10,2013-10-08 16:03:00,
2013-10-08 09:18:00,60.9,43.0,29.90,SW,229,2.0,4.0,53,0.00,,,0.00,422,weatherlink.com 1.10,2013-10-08 16:18:00,
2013-10-08 09:33:00,62.9,44.0,29.89,SW,229,0.0,3.0,50,0.00,,,0.00,464,weatherlink.com 1.10,2013-10-08 16:33:00,
2013-10-08 09:48:00,64.5,43.0,29.89,SW,222,1.0,4.0,45,0.00,,,0.00,512,weatherlink.com 1.10,2013-10-08 16:48:00,
2013-10-08 10:03:00,66.5,43.0,29.89,SW,221,1.0,3.0,43,0.00,,,0.00,548,weatherlink.com 1.10,2013-10-08 17:03:00,
2013-10-08 10:18:00,67.7,42.0,29.89,SSW,210,0.0,5.0,39,0.00,,,0.00,585,weatherlink.com 1.10,2013-10-08 17:18:00,
2013-10-08 10:33:00,68.2,41.0,29.89,North,9,2.0,5.0,37,0.00,,,0.00,619,weatherlink.com 1.10,2013-10-08 17:33:00,
2013-10-08 10:48:00,69.2,42.0,29.88,North,5,1.0,6.0,37,0.00,,,0.00,654,weatherlink.com 1.10,2013-10-08 17:48:00,
2013-10-08 11:03:00,69.9,42.0,29.88,NNW,340,4.0,6.0,37,0.00,,,0.00,624,weatherlink.com 1.10,2013-10-08 18:03:00,
2013-10-08 11:18:00,70.8,42.0,29.88,NNW,342,3.0,7.0,36,0.00,,,0.00,696,weatherlink.com 1.10,2013-10-08 18:18:00,
2013-10-08 11:33:00,70.9,41.0,29.87,NNW,340,3.0,7.0,34,0.00,,,0.00,747,weatherlink.com 1.10,2013-10-08 18:33:00,
2013-10-08 11:48:00,72.6,39.0,29.87,NNE,15,4.0,8.0,30,0.00,,,0.00,338,weatherlink.com 1.10,2013-10-08 18:48:00,
2013-10-08 12:03:00,72.2,39.0,29.87,NNW,334,10.0,11.0,30,0.00,,,0.00,587,weatherlink.com 1.10,2013-10-08 19:03:00,
2013-10-08 12:18:00,72.9,40.0,29.86,NNW,348,7.0,9.0,30,0.00,,,0.00,742,weatherlink.com 1.10,2013-10-08 19:18:00,
2013-10-08 12:33:00,72.9,40.0,29.85,WNW,293,1.0,6.0,31,0.00,,,0.00,508,weatherlink.com 1.10,2013-10-08 19:33:00,
2013-10-08 12:48:00,72.8,41.0,29.85,NNE,13,4.0,8.0,32,0.00,,,0.00,677,weatherlink.com 1.10,2013-10-08 19:48:00,
2013-10-08 13:04:00,73.5,40.0,29.84,NNE,32,1.0,8.0,30,0.00,,,0.00,714,weatherlink.com 1.10,2013-10-08 20:04:00,
2013-10-08 13:19:00,74.1,44.0,29.83,West,279,3.0,7.0,34,0.00,,,0.00,700,weatherlink.com 1.10,2013-10-08 20:19:00,
2013-10-08 13:34:00,72.6,47.0,29.82,WNW,295,6.0,9.0,41,0.00,,,0.00,406,weatherlink.com 1.10,2013-10-08 20:34:00,
2013-10-08 13:49:00,73.8,47.0,29.81,West,280,6.0,9.0,39,0.00,,,0.00,705,weatherlink.com 1.10,2013-10-08 20:49:00,
2013-10-08 14:04:00,73.7,48.0,29.80,West,269,3.0,8.0,40,0.00,,,0.00,707,weatherlink.com 1.10,2013-10-08 21:04:00,
2013-10-08 14:19:00,74.6,47.0,29.80,WNW,296,4.0,8.0,37,0.00,,,0.00,622,weatherlink.com 1.10,2013-10-08 21:19:00,
2013-10-08 14:34:00,75.6,47.0,29.79,SSW,205,3.0,7.0,36,0.00,,,0.00,570,weatherlink.com 1.10,2013-10-08 21:34:00,
2013-10-08 14:49:00,75.7,47.0,29.78,West,265,6.0,12.0,36,0.00,,,0.00,538,weatherlink.com 1.10,2013-10-08 21:49:00,
2013-10-08 15:04:00,75.6,47.0,29.77,NW,319,4.0,9.0,36,0.00,,,0.00,538,weatherlink.com 1.10,2013-10-08 22:04:00,
2013-10-08 15:19:00,75.4,47.0,29.77,West,272,5.0,9.0,36,0.00,,,0.00,494,weatherlink.com 1.10,2013-10-08 22:19:00,
2013-10-08 15:34:00,75.5,47.0,29.77,SW,230,5.0,11.0,37,0.00,,,0.00,454,weatherlink.com 1.10,2013-10-08 22:34:00,
2013-10-08 15:49:00,75.3,46.0,29.77,WSW,248,8.0,12.0,36,0.00,,,0.00,406,weatherlink.com 1.10,2013-10-08 22:49:00,
2013-10-08 16:04:00,74.9,45.0,29.77,NW,315,5.0,12.0,34,0.00,,,0.00,369,weatherlink.com 1.10,2013-10-08 23:04:00,
2013-10-08 16:19:00,74.5,45.0,29.76,WNW,295,7.0,11.0,35,0.00,,,0.00,322,weatherlink.com 1.10,2013-10-08 23:19:00,
2013-10-08 16:34:00,73.5,44.0,29.76,SW,220,6.0,14.0,35,0.00,,,0.00,276,weatherlink.com 1.10,2013-10-08 23:34:00,
2013-10-08 16:49:00,73.4,44.0,29.75,West,281,7.0,15.0,35,0.00,,,0.00,225,weatherlink.com 1.10,2013-10-08 23:49:00,
2013-10-08 17:04:00,72.0,45.0,29.75,WNW,296,8.0,14.0,38,0.00,,,0.00,162,weatherlink.com 1.10,2013-10-09 00:04:00,
2013-10-08 17:19:00,71.3,46.0,29.74,WNW,282,8.0,13.0,40,0.00,,,0.00,105,weatherlink.com 1.10,2013-10-09 00:19:00,
2013-10-08 17:34:00,70.3,45.0,29.74,SW,232,6.0,12.0,41,0.00,,,0.00,58,weatherlink.com 1.10,2013-10-09 00:34:00,
2013-10-08 17:49:00,69.4,45.0,29.73,SW,227,4.0,11.0,42,0.00,,,0.00,30,weatherlink.com 1.10,2013-10-09 00:49:00,
2013-10-08 18:04:00,67.5,45.0,29.73,WNW,302,3.0,11.0,44,0.00,,,0.00,21,weatherlink.com 1.10,2013-10-09 01:04:00,
2013-10-08 18:19:00,65.4,44.0,29.72,West,274,6.0,11.0,46,0.00,,,0.00,11,weatherlink.com 1.10,2013-10-09 01:19:00,
2013-10-08 18:34:00,64.1,43.0,29.73,West,261,3.0,12.0,46,0.00,,,0.00,5,weatherlink.com 1.10,2013-10-09 01:34:00,
2013-10-08 18:49:00,63.0,45.0,29.73,WSW,252,8.0,12.0,52,0.00,,,0.00,0,weatherlink.com 1.10,2013-10-09 01:49:00,
2013-10-08 19:04:00,61.7,45.0,29.73,SW,229,8.0,15.0,54,0.00,,,0.00,0,weatherlink.com 1.10,2013-10-09 02:04:00,
2013-10-08 19:20:00,60.2,47.0,29.72,NW,310,6.0,9.0,63,0.00,,,0.00,0,weatherlink.com 1.10,2013-10-09 02:20:00,
2013-10-08 19:34:00,58.9,48.0,29.72,North,5,2.0,8.0,68,0.00,,,0.00,0,weatherlink.com 1.10,2013-10-09 02:34:00,
2013-10-08 19:49:00,57.7,49.0,29.73,North,351,0.0,4.0,72,0.00,,,0.00,0,weatherlink.com 1.10,2013-10-09 02:49:00,
2013-10-08 20:04:00,57.3,49.0,29.72,SW,231,3.0,10.0,73,0.00,,,0.00,0,weatherlink.com 1.10,2013-10-09 03:04:00,
2013-10-08 20:19:00,57.0,49.0,29.73,WNW,284,7.0,10.0,74,0.00,,,0.00,0,weatherlink.com 1.10,2013-10-09 03:19:00,
2013-10-08 20:34:00,56.0,49.0,29.73,West,265,2.0,12.0,77,0.00,,,0.00,0,weatherlink.com 1.10,2013-10-09 03:34:00,
2013-10-08 20:49:00,55.6,49.0,29.73,WSW,252,4.0,8.0,78,0.00,,,0.00,0,weatherlink.com 1.10,2013-10-09 03:49:00,
2013-10-08 21:04:00,55.1,49.0,29.73,WSW,246,4.0,8.0,79,0.00,,,0.00,0,weatherlink.com 1.10,2013-10-09 04:04:00,
2013-10-08 21:19:00,54.6,49.0,29.74,NW,306,4.0,9.0,81,0.00,,,0.00,0,weatherlink.com 1.10,2013-10-09 04:19:00,
2013-10-08 21:34:00,54.3,49.0,29.73,West,265,6.0,10.0,81,0.00,,,0.00,0,weatherlink.com 1.10,2013-10-09 04:34:00,
2013-10-08 21:49:00,54.1,49.0,29.73,West,261,0.0,9.0,82,0.00,,,0.00,0,weatherlink.com 1.10,2013-10-09 04:49:00,
2013-10-08 22:04:00,53.7,49.0,29.74,West,260,4.0,8.0,83,0.00,,,0.00,0,weatherlink.com 1.10,2013-10-09 05:04:00,
2013-10-08 22:19:00,53.7,49.0,29.73,WNW,297,8.0,9.0,84,0.00,,,0.00,0,weatherlink.com 1.10,2013-10-09 05:19:00,
2013-10-08 22:34:00,53.4,49.0,29.73,WNW,301,4.0,14.0,85,0.00,,,0.00,0,weatherlink.com 1.10,2013-10-09 05:34:00,
2013-10-08 22:49:00,53.2,49.0,29.73,WNW,302,1.0,10.0,85,0.00,,,0.00,0,weatherlink.com 1.10,2013-10-09 05:49:00,
2013-10-08 23:04:00,53.2,49.0,29.72,West,263,5.0,10.0,85,0.00,,,0.00,0,weatherlink.com 1.10,2013-10-09 06:04:00,
2013-10-08 23:19:00,53.3,49.0,29.72,WSW,242,0.0,10.0,84,0.00,,,0.00,0,weatherlink.com 1.10,2013-10-09 06:19:00,
2013-10-08 23:34:00,53.1,48.0,29.72,NW,308,0.0,5.0,84,0.00,,,0.00,0,weatherlink.com 1.10,2013-10-09 06:34:00,
2013-10-08 23:49:00,53.2,49.0,29.72,WNW,284,2.0,6.0,84,0.00,,,0.00,0,weatherlink.com 1.10,2013-10-09 06:49:00,